sensor_id;sensor_type;location;lat;lon;timestamp;temperature;humidity
11246;DHT22;59870;50.106;8.580;2022-12-01T00:01:18;9.90;99.40
11246;DHT22;59870;50.106;8.580;2022-12-01T00:03:46;9.70;99.40
11246;DHT22;59870;50.106;8.580;2022-12-01T00:06:17;9.70;99.70
11246;DHT22;59870;50.106;8.580;2022-12-01T00:08:48;9.70;99.90
11246;DHT22;59870;50.106;8.580;2022-12-01T00:11:36;9.70;99.90
11246;DHT22;59870;50.106;8.580;2022-12-01T00:14:05;9.70;99.70
11246;DHT22;59870;50.106;8.580;2022-12-01T00:16:33;9.80;99.30
11246;DHT22;59870;50.106;8.580;2022-12-01T00:19:01;9.80;99.00
11246;DHT22;59870;50.106;8.580;2022-12-01T00:21:28;9.80;98.60
11246;DHT22;59870;50.106;8.580;2022-12-01T00:23:56;9.70;98.70
11246;DHT22;59870;50.106;8.580;2022-12-01T00:26:26;9.60;98.90
11246;DHT22;59870;50.106;8.580;2022-12-01T00:28:56;9.50;99.00
11246;DHT22;59870;50.106;8.580;2022-12-01T00:31:25;9.40;99.20
11246;DHT22;59870;50.106;8.580;2022-12-01T00:33:53;9.30;99.10
11246;DHT22;59870;50.106;8.580;2022-12-01T00:36:21;9.30;99.20
11246;DHT22;59870;50.106;8.580;2022-12-01T00:38:53;9.20;99.60
11246;DHT22;59870;50.106;8.580;2022-12-01T00:41:22;9.30;99.60
11246;DHT22;59870;50.106;8.580;2022-12-01T00:43:50;9.30;99.10
11246;DHT22;59870;50.106;8.580;2022-12-01T00:46:19;9.30;99.30
11246;DHT22;59870;50.106;8.580;2022-12-01T00:48:47;9.20;99.30
11246;DHT22;59870;50.106;8.580;2022-12-01T00:51:14;9.20;99.20
11246;DHT22;59870;50.106;8.580;2022-12-01T00:53:41;9.20;99.30
11246;DHT22;59870;50.106;8.580;2022-12-01T00:56:09;9.10;99.30
11246;DHT22;59870;50.106;8.580;2022-12-01T00:58:36;9.10;99.60
11246;DHT22;59870;50.106;8.580;2022-12-01T01:01:04;9.10;99.50
11246;DHT22;59870;50.106;8.580;2022-12-01T01:03:32;9.10;99.30
11246;DHT22;59870;50.106;8.580;2022-12-01T01:06:05;9.10;99.60
11246;DHT22;59870;50.106;8.580;2022-12-01T01:08:33;9.20;99.80
11246;DHT22;59870;50.106;8.580;2022-12-01T01:11:00;9.20;99.80
11246;DHT22;59870;50.106;8.580;2022-12-01T01:13:28;9.30;99.80
11246;DHT22;59870;50.106;8.580;2022-12-01T01:16:05;9.30;99.50
11246;DHT22;59870;50.106;8.580;2022-12-01T01:18:33;9.40;99.40
11246;DHT22;59870;50.106;8.580;2022-12-01T01:21:06;9.40;99.10
11246;DHT22;59870;50.106;8.580;2022-12-01T01:23:37;9.50;99.00
11246;DHT22;59870;50.106;8.580;2022-12-01T01:26:14;9.50;98.70
11246;DHT22;59870;50.106;8.580;2022-12-01T01:28:44;9.50;98.90
11246;DHT22;59870;50.106;8.580;2022-12-01T01:31:15;9.60;98.90
11246;DHT22;59870;50.106;8.580;2022-12-01T01:33:43;9.60;98.60
11246;DHT22;59870;50.106;8.580;2022-12-01T01:36:11;9.60;98.40
11246;DHT22;59870;50.106;8.580;2022-12-01T01:38:39;9.70;98.10
11246;DHT22;59870;50.106;8.580;2022-12-01T01:41:07;9.70;98.00
11246;DHT22;59870;50.106;8.580;2022-12-01T01:43:48;9.70;97.90
11246;DHT22;59870;50.106;8.580;2022-12-01T01:46:19;9.70;98.00
11246;DHT22;59870;50.106;8.580;2022-12-01T01:49:01;9.70;98.10
11246;DHT22;59870;50.106;8.580;2022-12-01T01:54:11;9.70;98.00
11246;DHT22;59870;50.106;8.580;2022-12-01T01:56:43;9.70;97.90
11246;DHT22;59870;50.106;8.580;2022-12-01T01:59:13;9.80;97.90
11246;DHT22;59870;50.106;8.580;2022-12-01T02:01:41;9.80;97.90
11246;DHT22;59870;50.106;8.580;2022-12-01T02:04:09;9.80;97.60
11246;DHT22;59870;50.106;8.580;2022-12-01T02:06:36;9.80;97.50
11246;DHT22;59870;50.106;8.580;2022-12-01T02:09:04;9.80;97.60
11246;DHT22;59870;50.106;8.580;2022-12-01T02:12:00;9.80;97.50
11246;DHT22;59870;50.106;8.580;2022-12-01T02:20:37;9.70;97.70
11246;DHT22;59870;50.106;8.580;2022-12-01T02:26:35;9.80;98.10
11246;DHT22;59870;50.106;8.580;2022-12-01T02:37:35;9.80;97.50
11246;DHT22;59870;50.106;8.580;2022-12-01T02:40:36;9.80;97.50
11246;DHT22;59870;50.106;8.580;2022-12-01T02:43:37;9.80;97.70
11246;DHT22;59870;50.106;8.580;2022-12-01T02:46:26;9.80;97.20
11246;DHT22;59870;50.106;8.580;2022-12-01T02:49:03;9.80;97.10
11246;DHT22;59870;50.106;8.580;2022-12-01T02:51:33;9.80;97.10
11246;DHT22;59870;50.106;8.580;2022-12-01T02:54:08;9.80;97.10
11246;DHT22;59870;50.106;8.580;2022-12-01T02:56:36;9.80;97.00
11246;DHT22;59870;50.106;8.580;2022-12-01T02:59:11;9.80;96.80
11246;DHT22;59870;50.106;8.580;2022-12-01T03:04:49;9.80;96.90
11246;DHT22;59870;50.106;8.580;2022-12-01T03:10:19;9.70;97.10
11246;DHT22;59870;50.106;8.580;2022-12-01T03:13:14;9.70;97.10
11246;DHT22;59870;50.106;8.580;2022-12-01T03:18:49;9.80;97.30
11246;DHT22;59870;50.106;8.580;2022-12-01T03:21:27;9.80;97.00
11246;DHT22;59870;50.106;8.580;2022-12-01T03:24:02;9.80;97.00
11246;DHT22;59870;50.106;8.580;2022-12-01T03:26:32;9.80;97.00
11246;DHT22;59870;50.106;8.580;2022-12-01T03:29:05;9.80;97.00
11246;DHT22;59870;50.106;8.580;2022-12-01T03:31:39;10.20;96.60
11246;DHT22;59870;50.106;8.580;2022-12-01T03:34:34;9.80;96.90
11246;DHT22;59870;50.106;8.580;2022-12-01T03:37:15;9.80;97.00
11246;DHT22;59870;50.106;8.580;2022-12-01T03:39:45;9.80;97.00
11246;DHT22;59870;50.106;8.580;2022-12-01T03:42:26;10.10;96.30
11246;DHT22;59870;50.106;8.580;2022-12-01T03:44:57;9.80;96.80
11246;DHT22;59870;50.106;8.580;2022-12-01T03:47:29;9.70;96.60
11246;DHT22;59870;50.106;8.580;2022-12-01T03:49:58;9.80;96.80
11246;DHT22;59870;50.106;8.580;2022-12-01T03:55:27;9.80;96.80
11246;DHT22;59870;50.106;8.580;2022-12-01T03:58:07;9.80;96.60
11246;DHT22;59870;50.106;8.580;2022-12-01T04:00:35;9.70;96.50
11246;DHT22;59870;50.106;8.580;2022-12-01T04:03:04;9.70;96.40
11246;DHT22;59870;50.106;8.580;2022-12-01T04:05:35;9.70;96.60
11246;DHT22;59870;50.106;8.580;2022-12-01T04:08:03;9.70;96.50
11246;DHT22;59870;50.106;8.580;2022-12-01T04:10:30;9.70;96.30
11246;DHT22;59870;50.106;8.580;2022-12-01T04:12:59;9.60;96.50
11246;DHT22;59870;50.106;8.580;2022-12-01T04:15:27;9.60;96.30
11246;DHT22;59870;50.106;8.580;2022-12-01T04:17:54;9.60;96.30
11246;DHT22;59870;50.106;8.580;2022-12-01T04:20:21;9.60;96.40
11246;DHT22;59870;50.106;8.580;2022-12-01T04:22:49;9.60;96.40
11246;DHT22;59870;50.106;8.580;2022-12-01T04:25:16;9.60;96.30
11246;DHT22;59870;50.106;8.580;2022-12-01T04:27:43;9.50;96.60
11246;DHT22;59870;50.106;8.580;2022-12-01T04:30:11;9.50;96.70
11246;DHT22;59870;50.106;8.580;2022-12-01T04:32:40;9.50;96.90
11246;DHT22;59870;50.106;8.580;2022-12-01T04:35:09;9.50;96.90
11246;DHT22;59870;50.106;8.580;2022-12-01T04:37:38;9.50;97.00
11246;DHT22;59870;50.106;8.580;2022-12-01T04:40:06;9.50;97.00
11246;DHT22;59870;50.106;8.580;2022-12-01T04:42:34;9.50;96.80
11246;DHT22;59870;50.106;8.580;2022-12-01T04:45:05;9.50;96.70
11246;DHT22;59870;50.106;8.580;2022-12-01T04:47:32;9.50;97.00
11246;DHT22;59870;50.106;8.580;2022-12-01T04:49:59;9.40;97.20
11246;DHT22;59870;50.106;8.580;2022-12-01T04:52:27;9.30;97.20
11246;DHT22;59870;50.106;8.580;2022-12-01T04:55:02;9.30;97.00
11246;DHT22;59870;50.106;8.580;2022-12-01T04:57:30;9.30;97.10
11246;DHT22;59870;50.106;8.580;2022-12-01T04:59:57;9.30;97.10
11246;DHT22;59870;50.106;8.580;2022-12-01T05:02:24;9.30;97.20
11246;DHT22;59870;50.106;8.580;2022-12-01T05:04:52;9.30;96.90
11246;DHT22;59870;50.106;8.580;2022-12-01T05:07:19;9.30;96.80
11246;DHT22;59870;50.106;8.580;2022-12-01T05:09:46;9.30;97.00
11246;DHT22;59870;50.106;8.580;2022-12-01T05:12:14;9.30;97.20
11246;DHT22;59870;50.106;8.580;2022-12-01T05:14:43;9.30;97.30
11246;DHT22;59870;50.106;8.580;2022-12-01T05:17:11;9.30;97.50
11246;DHT22;59870;50.106;8.580;2022-12-01T05:19:39;9.30;97.10
11246;DHT22;59870;50.106;8.580;2022-12-01T05:22:24;9.30;97.10
11246;DHT22;59870;50.106;8.580;2022-12-01T05:25:12;9.30;96.30
11246;DHT22;59870;50.106;8.580;2022-12-01T05:27:39;9.30;96.00
11246;DHT22;59870;50.106;8.580;2022-12-01T05:30:07;9.30;96.60
11246;DHT22;59870;50.106;8.580;2022-12-01T05:32:35;9.30;96.70
11246;DHT22;59870;50.106;8.580;2022-12-01T05:35:02;9.30;96.80
11246;DHT22;59870;50.106;8.580;2022-12-01T05:37:30;9.30;96.90
11246;DHT22;59870;50.106;8.580;2022-12-01T05:40:01;9.40;96.80
11246;DHT22;59870;50.106;8.580;2022-12-01T05:42:28;9.40;96.60
11246;DHT22;59870;50.106;8.580;2022-12-01T05:44:55;9.40;96.20
11246;DHT22;59870;50.106;8.580;2022-12-01T05:47:22;9.40;96.10
11246;DHT22;59870;50.106;8.580;2022-12-01T05:49:50;9.40;96.30
11246;DHT22;59870;50.106;8.580;2022-12-01T05:52:17;9.40;95.70
11246;DHT22;59870;50.106;8.580;2022-12-01T05:54:45;9.80;95.90
11246;DHT22;59870;50.106;8.580;2022-12-01T05:57:12;9.40;96.10
11246;DHT22;59870;50.106;8.580;2022-12-01T06:02:40;9.40;96.00
11246;DHT22;59870;50.106;8.580;2022-12-01T06:05:09;9.60;96.40
11246;DHT22;59870;50.106;8.580;2022-12-01T06:07:36;9.40;96.40
11246;DHT22;59870;50.106;8.580;2022-12-01T06:10:07;9.40;96.00
11246;DHT22;59870;50.106;8.580;2022-12-01T06:12:36;9.50;96.00
11246;DHT22;59870;50.106;8.580;2022-12-01T06:15:04;9.50;95.80
11246;DHT22;59870;50.106;8.580;2022-12-01T06:17:33;9.40;95.70
11246;DHT22;59870;50.106;8.580;2022-12-01T06:20:07;9.40;95.80
11246;DHT22;59870;50.106;8.580;2022-12-01T06:22:35;9.40;95.90
11246;DHT22;59870;50.106;8.580;2022-12-01T06:25:03;9.40;95.10
11246;DHT22;59870;50.106;8.580;2022-12-01T06:27:31;9.40;95.00
11246;DHT22;59870;50.106;8.580;2022-12-01T06:29:59;9.30;95.00
11246;DHT22;59870;50.106;8.580;2022-12-01T06:32:26;9.20;95.40
11246;DHT22;59870;50.106;8.580;2022-12-01T06:34:53;9.20;95.70
11246;DHT22;59870;50.106;8.580;2022-12-01T06:37:21;9.20;95.40
11246;DHT22;59870;50.106;8.580;2022-12-01T06:39:48;9.10;95.20
11246;DHT22;59870;50.106;8.580;2022-12-01T06:52:04;8.90;95.30
11246;DHT22;59870;50.106;8.580;2022-12-01T06:54:32;8.90;95.30
11246;DHT22;59870;50.106;8.580;2022-12-01T06:56:59;8.80;95.70
11246;DHT22;59870;50.106;8.580;2022-12-01T06:59:27;8.80;95.20
11246;DHT22;59870;50.106;8.580;2022-12-01T07:01:55;8.70;95.70
11246;DHT22;59870;50.106;8.580;2022-12-01T07:04:24;9.00;96.00
11246;DHT22;59870;50.106;8.580;2022-12-01T07:06:51;8.70;96.30
11246;DHT22;59870;50.106;8.580;2022-12-01T07:09:19;8.80;95.80
11246;DHT22;59870;50.106;8.580;2022-12-01T07:11:46;8.80;95.80
11246;DHT22;59870;50.106;8.580;2022-12-01T07:14:21;8.80;95.80
11246;DHT22;59870;50.106;8.580;2022-12-01T07:16:48;8.80;95.70
11246;DHT22;59870;50.106;8.580;2022-12-01T07:19:16;8.80;95.60
11246;DHT22;59870;50.106;8.580;2022-12-01T07:21:44;8.80;95.70
11246;DHT22;59870;50.106;8.580;2022-12-01T07:24:11;8.80;95.70
11246;DHT22;59870;50.106;8.580;2022-12-01T07:26:39;8.80;95.60
11246;DHT22;59870;50.106;8.580;2022-12-01T07:29:08;8.80;95.70
11246;DHT22;59870;50.106;8.580;2022-12-01T07:31:37;8.80;95.70
11246;DHT22;59870;50.106;8.580;2022-12-01T07:34:05;9.10;95.70
11246;DHT22;59870;50.106;8.580;2022-12-01T07:36:35;8.80;95.50
11246;DHT22;59870;50.106;8.580;2022-12-01T07:39:04;8.80;95.60
11246;DHT22;59870;50.106;8.580;2022-12-01T07:41:33;8.80;95.50
11246;DHT22;59870;50.106;8.580;2022-12-01T07:44:01;8.80;95.50
11246;DHT22;59870;50.106;8.580;2022-12-01T07:46:29;8.70;95.50
11246;DHT22;59870;50.106;8.580;2022-12-01T07:48:56;8.70;95.50
11246;DHT22;59870;50.106;8.580;2022-12-01T07:51:26;8.70;95.40
11246;DHT22;59870;50.106;8.580;2022-12-01T07:53:54;8.70;95.60
11246;DHT22;59870;50.106;8.580;2022-12-01T07:56:22;8.70;95.50
11246;DHT22;59870;50.106;8.580;2022-12-01T07:58:49;8.60;95.50
11246;DHT22;59870;50.106;8.580;2022-12-01T08:01:20;8.60;95.60
11246;DHT22;59870;50.106;8.580;2022-12-01T08:03:49;8.70;95.80
11246;DHT22;59870;50.106;8.580;2022-12-01T08:06:18;8.70;95.70
11246;DHT22;59870;50.106;8.580;2022-12-01T08:08:46;8.70;95.90
11246;DHT22;59870;50.106;8.580;2022-12-01T08:13:42;8.70;95.80
11246;DHT22;59870;50.106;8.580;2022-12-01T08:16:11;8.80;95.70
11246;DHT22;59870;50.106;8.580;2022-12-01T08:19:05;9.00;95.70
11246;DHT22;59870;50.106;8.580;2022-12-01T08:27:52;9.00;95.20
11246;DHT22;59870;50.106;8.580;2022-12-01T08:30:20;8.90;95.10
11246;DHT22;59870;50.106;8.580;2022-12-01T08:32:48;8.90;94.70
11246;DHT22;59870;50.106;8.580;2022-12-01T08:35:20;9.20;94.80
11246;DHT22;59870;50.106;8.580;2022-12-01T08:37:49;9.00;94.70
11246;DHT22;59870;50.106;8.580;2022-12-01T08:40:17;8.90;94.60
11246;DHT22;59870;50.106;8.580;2022-12-01T08:42:46;9.00;94.50
11246;DHT22;59870;50.106;8.580;2022-12-01T08:45:14;9.00;94.40
11246;DHT22;59870;50.106;8.580;2022-12-01T08:47:41;9.00;94.20
11246;DHT22;59870;50.106;8.580;2022-12-01T08:50:10;9.30;94.00
11246;DHT22;59870;50.106;8.580;2022-12-01T08:52:38;9.00;93.80
11246;DHT22;59870;50.106;8.580;2022-12-01T08:55:08;9.00;93.80
11246;DHT22;59870;50.106;8.580;2022-12-01T08:57:35;9.00;94.00
11246;DHT22;59870;50.106;8.580;2022-12-01T09:00:03;9.00;94.10
11246;DHT22;59870;50.106;8.580;2022-12-01T09:02:34;9.00;94.40
11246;DHT22;59870;50.106;8.580;2022-12-01T09:05:02;9.00;94.20
11246;DHT22;59870;50.106;8.580;2022-12-01T09:07:29;9.00;93.90
11246;DHT22;59870;50.106;8.580;2022-12-01T09:09:57;9.10;93.80
11246;DHT22;59870;50.106;8.580;2022-12-01T09:12:27;9.10;93.60
11246;DHT22;59870;50.106;8.580;2022-12-01T09:14:55;9.10;93.90
11246;DHT22;59870;50.106;8.580;2022-12-01T09:17:22;9.40;94.20
11246;DHT22;59870;50.106;8.580;2022-12-01T09:19:52;9.10;93.80
11246;DHT22;59870;50.106;8.580;2022-12-01T09:22:19;9.10;93.80
11246;DHT22;59870;50.106;8.580;2022-12-01T09:24:49;9.10;93.60
11246;DHT22;59870;50.106;8.580;2022-12-01T09:27:16;9.20;93.80
11246;DHT22;59870;50.106;8.580;2022-12-01T09:29:44;9.10;93.80
11246;DHT22;59870;50.106;8.580;2022-12-01T09:32:11;9.20;93.70
11246;DHT22;59870;50.106;8.580;2022-12-01T09:34:39;9.20;93.40
11246;DHT22;59870;50.106;8.580;2022-12-01T09:37:07;9.10;93.50
11246;DHT22;59870;50.106;8.580;2022-12-01T09:39:37;9.20;93.80
11246;DHT22;59870;50.106;8.580;2022-12-01T09:42:13;9.20;93.90
11246;DHT22;59870;50.106;8.580;2022-12-01T09:44:53;9.10;93.60
11246;DHT22;59870;50.106;8.580;2022-12-01T09:47:31;9.40;93.80
11246;DHT22;59870;50.106;8.580;2022-12-01T09:52:43;9.10;93.70
11246;DHT22;59870;50.106;8.580;2022-12-01T09:55:14;9.10;93.80
11246;DHT22;59870;50.106;8.580;2022-12-01T09:57:43;9.40;93.80
11246;DHT22;59870;50.106;8.580;2022-12-01T10:00:31;9.20;93.80
11246;DHT22;59870;50.106;8.580;2022-12-01T10:09:30;9.30;93.70
11246;DHT22;59870;50.106;8.580;2022-12-01T10:12:14;9.20;93.90
11246;DHT22;59870;50.106;8.580;2022-12-01T10:14:44;9.20;93.70
11246;DHT22;59870;50.106;8.580;2022-12-01T10:17:36;9.30;93.70
11246;DHT22;59870;50.106;8.580;2022-12-01T10:26:12;9.30;93.60
11246;DHT22;59870;50.106;8.580;2022-12-01T10:31:33;9.30;93.60
11246;DHT22;59870;50.106;8.580;2022-12-01T10:34:07;9.00;93.30
11246;DHT22;59870;50.106;8.580;2022-12-01T10:36:36;9.50;94.00
11246;DHT22;59870;50.106;8.580;2022-12-01T10:39:05;9.30;93.40
11246;DHT22;59870;50.106;8.580;2022-12-01T10:41:36;9.40;93.10
11246;DHT22;59870;50.106;8.580;2022-12-01T10:44:06;9.40;93.30
11246;DHT22;59870;50.106;8.580;2022-12-01T10:46:42;9.40;93.10
11246;DHT22;59870;50.106;8.580;2022-12-01T10:49:13;9.40;93.30
11246;DHT22;59870;50.106;8.580;2022-12-01T10:51:51;9.40;93.30
11246;DHT22;59870;50.106;8.580;2022-12-01T10:54:19;9.40;93.20
11246;DHT22;59870;50.106;8.580;2022-12-01T10:56:48;9.70;93.30
11246;DHT22;59870;50.106;8.580;2022-12-01T10:59:37;9.50;93.40
11246;DHT22;59870;50.106;8.580;2022-12-01T11:02:13;9.50;93.20
11246;DHT22;59870;50.106;8.580;2022-12-01T11:04:50;9.50;93.40
11246;DHT22;59870;50.106;8.580;2022-12-01T11:07:22;9.50;93.30
11246;DHT22;59870;50.106;8.580;2022-12-01T11:12:29;9.50;93.30
11246;DHT22;59870;50.106;8.580;2022-12-01T11:14:57;9.60;93.10
11246;DHT22;59870;50.106;8.580;2022-12-01T11:19:57;9.60;93.00
11246;DHT22;59870;50.106;8.580;2022-12-01T11:22:29;9.60;93.10
11246;DHT22;59870;50.106;8.580;2022-12-01T11:25:08;9.60;93.20
11246;DHT22;59870;50.106;8.580;2022-12-01T11:27:51;9.60;93.30
11246;DHT22;59870;50.106;8.580;2022-12-01T11:30:27;9.70;93.30
11246;DHT22;59870;50.106;8.580;2022-12-01T11:33:02;9.70;93.00
11246;DHT22;59870;50.106;8.580;2022-12-01T11:35:32;9.70;92.80
11246;DHT22;59870;50.106;8.580;2022-12-01T11:38:04;9.80;92.90
11246;DHT22;59870;50.106;8.580;2022-12-01T11:40:54;9.80;93.10
11246;DHT22;59870;50.106;8.580;2022-12-01T11:43:31;9.90;92.80
11246;DHT22;59870;50.106;8.580;2022-12-01T11:46:03;9.90;92.50
11246;DHT22;59870;50.106;8.580;2022-12-01T11:48:33;9.90;92.70
11246;DHT22;59870;50.106;8.580;2022-12-01T11:51:31;9.80;92.90
11246;DHT22;59870;50.106;8.580;2022-12-01T11:56:32;9.90;92.50
11246;DHT22;59870;50.106;8.580;2022-12-01T11:59:04;9.90;92.30
11246;DHT22;59870;50.106;8.580;2022-12-01T12:07:52;9.90;92.60
11246;DHT22;59870;50.106;8.580;2022-12-01T12:10:47;9.90;92.80
11246;DHT22;59870;50.106;8.580;2022-12-01T12:13:23;9.90;92.90
11246;DHT22;59870;50.106;8.580;2022-12-01T12:18:48;10.00;91.80
11246;DHT22;59870;50.106;8.580;2022-12-01T12:21:31;9.90;92.00
11246;DHT22;59870;50.106;8.580;2022-12-01T12:24:16;9.90;92.10
11246;DHT22;59870;50.106;8.580;2022-12-01T12:33:14;10.00;91.80
11246;DHT22;59870;50.106;8.580;2022-12-01T13:27:36;9.30;92.80
11246;DHT22;59870;50.106;8.580;2022-12-01T13:30:17;9.40;92.90
11246;DHT22;59870;50.106;8.580;2022-12-01T13:32:45;9.30;92.80
11246;DHT22;59870;50.106;8.580;2022-12-01T13:38:28;9.40;92.90
11246;DHT22;59870;50.106;8.580;2022-12-01T13:41:13;9.40;93.10
11246;DHT22;59870;50.106;8.580;2022-12-01T13:43:52;9.50;92.80
11246;DHT22;59870;50.106;8.580;2022-12-01T13:49:32;9.50;92.50
11246;DHT22;59870;50.106;8.580;2022-12-01T14:00:37;9.50;92.30
11246;DHT22;59870;50.106;8.580;2022-12-01T14:08:26;9.50;92.00
11246;DHT22;59870;50.106;8.580;2022-12-01T14:13:27;9.40;92.10
11246;DHT22;59870;50.106;8.580;2022-12-01T14:15:56;9.50;92.20
11246;DHT22;59870;50.106;8.580;2022-12-01T14:18:56;9.50;92.40
11246;DHT22;59870;50.106;8.580;2022-12-01T14:21:46;9.30;92.30
11246;DHT22;59870;50.106;8.580;2022-12-01T14:26:54;9.20;92.40
11246;DHT22;59870;50.106;8.580;2022-12-01T14:29:29;9.50;92.60
11246;DHT22;59870;50.106;8.580;2022-12-01T14:34:36;9.30;92.60
11246;DHT22;59870;50.106;8.580;2022-12-01T14:37:12;9.50;92.30
11246;DHT22;59870;50.106;8.580;2022-12-01T14:39:46;9.30;92.40
11246;DHT22;59870;50.106;8.580;2022-12-01T14:45:14;9.30;92.40
11246;DHT22;59870;50.106;8.580;2022-12-01T14:47:54;9.40;92.30
11246;DHT22;59870;50.106;8.580;2022-12-01T14:50:33;9.30;92.30
11246;DHT22;59870;50.106;8.580;2022-12-01T14:53:25;9.30;92.40
11246;DHT22;59870;50.106;8.580;2022-12-01T14:59:25;9.30;92.60
11246;DHT22;59870;50.106;8.580;2022-12-01T15:05:11;9.30;92.70
11246;DHT22;59870;50.106;8.580;2022-12-01T15:08:36;9.30;92.60
11246;DHT22;59870;50.106;8.580;2022-12-01T15:11:22;9.00;92.60
11246;DHT22;59870;50.106;8.580;2022-12-01T15:13:55;9.50;92.70
11246;DHT22;59870;50.106;8.580;2022-12-01T15:16:25;9.30;92.70
11246;DHT22;59870;50.106;8.580;2022-12-01T15:18:57;9.20;92.70
11246;DHT22;59870;50.106;8.580;2022-12-01T15:21:27;9.20;92.70
11246;DHT22;59870;50.106;8.580;2022-12-01T15:24:17;9.20;92.60
11246;DHT22;59870;50.106;8.580;2022-12-01T15:26:52;9.20;92.90
11246;DHT22;59870;50.106;8.580;2022-12-01T15:29:39;9.20;92.80
11246;DHT22;59870;50.106;8.580;2022-12-01T15:32:13;9.20;93.00
11246;DHT22;59870;50.106;8.580;2022-12-01T15:34:44;9.20;92.70
11246;DHT22;59870;50.106;8.580;2022-12-01T15:37:17;9.20;92.80
11246;DHT22;59870;50.106;8.580;2022-12-01T15:39:53;9.60;92.90
11246;DHT22;59870;50.106;8.580;2022-12-01T15:42:38;9.10;92.80
11246;DHT22;59870;50.106;8.580;2022-12-01T15:45:18;9.10;92.80
11246;DHT22;59870;50.106;8.580;2022-12-01T15:47:50;9.00;93.00
11246;DHT22;59870;50.106;8.580;2022-12-01T15:53:24;9.00;93.00
11246;DHT22;59870;50.106;8.580;2022-12-01T15:55:54;9.00;92.90
11246;DHT22;59870;50.106;8.580;2022-12-01T15:58:31;9.10;93.00
11246;DHT22;59870;50.106;8.580;2022-12-01T16:01:15;8.90;93.00
11246;DHT22;59870;50.106;8.580;2022-12-01T16:04:01;8.90;93.10
11246;DHT22;59870;50.106;8.580;2022-12-01T16:07:02;9.00;93.30
11246;DHT22;59870;50.106;8.580;2022-12-01T16:09:55;9.00;93.20
11246;DHT22;59870;50.106;8.580;2022-12-01T16:12:37;9.00;93.20
11246;DHT22;59870;50.106;8.580;2022-12-01T16:15:14;9.00;93.10
11246;DHT22;59870;50.106;8.580;2022-12-01T16:24:05;8.90;93.10
11246;DHT22;59870;50.106;8.580;2022-12-01T16:30:04;8.80;93.20
11246;DHT22;59870;50.106;8.580;2022-12-01T16:32:37;8.80;93.30
11246;DHT22;59870;50.106;8.580;2022-12-01T16:35:17;8.70;93.30
11246;DHT22;59870;50.106;8.580;2022-12-01T16:37:46;8.70;93.30
11246;DHT22;59870;50.106;8.580;2022-12-01T16:40:13;8.70;93.30
11246;DHT22;59870;50.106;8.580;2022-12-01T16:42:43;8.70;93.30
11246;DHT22;59870;50.106;8.580;2022-12-01T16:45:12;8.40;93.20
11246;DHT22;59870;50.106;8.580;2022-12-01T16:47:45;8.70;93.20
11246;DHT22;59870;50.106;8.580;2022-12-01T16:50:18;8.60;93.50
11246;DHT22;59870;50.106;8.580;2022-12-01T16:52:46;8.60;93.50
11246;DHT22;59870;50.106;8.580;2022-12-01T16:55:22;8.60;93.60
11246;DHT22;59870;50.106;8.580;2022-12-01T16:57:50;8.60;93.60
11246;DHT22;59870;50.106;8.580;2022-12-01T17:00:21;8.60;93.40
11246;DHT22;59870;50.106;8.580;2022-12-01T17:02:50;8.70;93.60
11246;DHT22;59870;50.106;8.580;2022-12-01T17:05:19;8.60;93.50
11246;DHT22;59870;50.106;8.580;2022-12-01T17:07:46;8.60;93.60
11246;DHT22;59870;50.106;8.580;2022-12-01T17:10:14;8.80;93.60
11246;DHT22;59870;50.106;8.580;2022-12-01T17:12:42;8.80;93.70
11246;DHT22;59870;50.106;8.580;2022-12-01T17:15:10;8.80;93.80
11246;DHT22;59870;50.106;8.580;2022-12-01T17:17:38;8.60;93.60
11246;DHT22;59870;50.106;8.580;2022-12-01T17:20:06;8.50;93.60
11246;DHT22;59870;50.106;8.580;2022-12-01T17:22:34;8.60;93.70
11246;DHT22;59870;50.106;8.580;2022-12-01T17:25:05;8.60;93.70
11246;DHT22;59870;50.106;8.580;2022-12-01T17:27:35;8.60;93.60
11246;DHT22;59870;50.106;8.580;2022-12-01T17:30:04;8.90;93.80
11246;DHT22;59870;50.106;8.580;2022-12-01T17:32:32;8.70;93.60
11246;DHT22;59870;50.106;8.580;2022-12-01T17:35:00;8.70;93.60
11246;DHT22;59870;50.106;8.580;2022-12-01T17:37:28;8.70;93.50
11246;DHT22;59870;50.106;8.580;2022-12-01T17:39:55;8.70;93.50
11246;DHT22;59870;50.106;8.580;2022-12-01T17:42:23;8.80;93.40
11246;DHT22;59870;50.106;8.580;2022-12-01T17:44:51;8.80;93.40
11246;DHT22;59870;50.106;8.580;2022-12-01T17:47:18;8.80;93.40
11246;DHT22;59870;50.106;8.580;2022-12-01T17:49:46;8.70;93.40
11246;DHT22;59870;50.106;8.580;2022-12-01T17:52:13;8.70;93.40
11246;DHT22;59870;50.106;8.580;2022-12-01T17:54:41;8.70;93.50
11246;DHT22;59870;50.106;8.580;2022-12-01T17:57:09;8.70;93.50
11246;DHT22;59870;50.106;8.580;2022-12-01T17:59:36;8.60;93.60
11246;DHT22;59870;50.106;8.580;2022-12-01T18:02:06;8.60;93.60
11246;DHT22;59870;50.106;8.580;2022-12-01T18:04:34;8.60;93.60
11246;DHT22;59870;50.106;8.580;2022-12-01T18:07:02;8.60;93.50
11246;DHT22;59870;50.106;8.580;2022-12-01T18:09:29;8.60;93.70
11246;DHT22;59870;50.106;8.580;2022-12-01T18:11:59;8.60;93.80
11246;DHT22;59870;50.106;8.580;2022-12-01T18:14:26;8.60;93.80
11246;DHT22;59870;50.106;8.580;2022-12-01T18:17:21;8.60;93.70
11246;DHT22;59870;50.106;8.580;2022-12-01T19:33:41;8.60;93.80
11246;DHT22;59870;50.106;8.580;2022-12-01T19:39:20;8.60;93.90
11246;DHT22;59870;50.106;8.580;2022-12-01T19:41:50;8.50;93.80
11246;DHT22;59870;50.106;8.580;2022-12-01T21:14:31;8.60;94.20
11246;DHT22;59870;50.106;8.580;2022-12-01T21:17:17;8.60;94.20
11246;DHT22;59870;50.106;8.580;2022-12-01T21:20:02;8.60;94.10
11246;DHT22;59870;50.106;8.580;2022-12-01T21:22:32;8.60;94.00
11246;DHT22;59870;50.106;8.580;2022-12-01T21:25:09;8.80;94.10
11246;DHT22;59870;50.106;8.580;2022-12-01T21:27:37;8.70;94.00
11246;DHT22;59870;50.106;8.580;2022-12-01T21:30:17;8.90;94.00
11246;DHT22;59870;50.106;8.580;2022-12-01T21:32:46;8.70;94.00
11246;DHT22;59870;50.106;8.580;2022-12-01T21:35:20;8.90;94.10
11246;DHT22;59870;50.106;8.580;2022-12-01T21:37:48;8.70;93.80
11246;DHT22;59870;50.106;8.580;2022-12-01T21:40:20;8.70;93.90
11246;DHT22;59870;50.106;8.580;2022-12-01T21:42:48;8.70;93.90
11246;DHT22;59870;50.106;8.580;2022-12-01T21:45:24;8.90;94.00
11246;DHT22;59870;50.106;8.580;2022-12-01T21:47:57;8.90;93.90
11246;DHT22;59870;50.106;8.580;2022-12-01T21:50:26;8.90;94.00
11246;DHT22;59870;50.106;8.580;2022-12-01T21:52:54;8.70;93.80
11246;DHT22;59870;50.106;8.580;2022-12-01T21:57:52;8.70;93.80
11246;DHT22;59870;50.106;8.580;2022-12-01T22:00:30;8.90;94.00
11246;DHT22;59870;50.106;8.580;2022-12-01T22:05:45;8.70;94.00
11246;DHT22;59870;50.106;8.580;2022-12-01T22:08:36;8.90;94.10
11246;DHT22;59870;50.106;8.580;2022-12-01T22:11:12;8.70;93.90
11246;DHT22;59870;50.106;8.580;2022-12-01T22:13:59;8.70;93.90
11246;DHT22;59870;50.106;8.580;2022-12-01T22:16:34;8.80;93.90
11246;DHT22;59870;50.106;8.580;2022-12-01T22:29:48;8.70;93.90
11246;DHT22;59870;50.106;8.580;2022-12-01T22:32:31;8.80;93.90
11246;DHT22;59870;50.106;8.580;2022-12-01T22:35:35;8.70;93.90
11246;DHT22;59870;50.106;8.580;2022-12-01T22:40:42;8.80;93.90